createdAt,value
2018-09-04T00:56:06.863Z,38.00
2018-09-04T00:58:35.295Z,38.83
2018-09-04T01:01:03.881Z,38.67
2018-09-04T01:03:32.627Z,38.40
2018-09-04T01:06:02.074Z,37.73
2018-09-04T01:08:30.798Z,37.30
2018-09-04T01:10:59.592Z,38.93
2018-09-04T01:13:29.342Z,39.57
2018-09-04T01:15:57.915Z,40.03
2018-09-04T01:18:28.632Z,41.47
2018-09-04T01:20:57.026Z,41.47
2018-09-04T01:23:25.809Z,43.27
2018-09-04T01:25:54.536Z,41.77
2018-09-04T01:28:23.413Z,43.17
2018-09-04T01:30:52.163Z,42.43
2018-09-04T01:33:21.199Z,43.97
2018-09-04T01:35:49.698Z,44.13
2018-09-04T01:38:19.912Z,41.77
2018-09-04T01:40:48.600Z,43.63
2018-09-04T01:43:17.012Z,44.30
2018-09-04T01:45:45.676Z,42.07
2018-09-04T01:48:14.805Z,42.30
2018-09-04T01:50:44.427Z,44.30
2018-09-04T01:53:13.156Z,43.37
2018-09-04T01:55:41.827Z,43.00
2018-09-04T01:58:10.483Z,44.23
2018-09-04T02:00:39.067Z,44.63
2018-09-04T02:03:07.892Z,42.60
2018-09-04T02:05:37.700Z,42.50
2018-09-04T02:08:06.135Z,41.73
2018-09-04T02:10:34.558Z,41.20
2018-09-04T02:13:02.939Z,41.57
2018-09-04T02:15:31.681Z,42.47
2018-09-04T02:18:00.097Z,41.57
2018-09-04T02:20:28.800Z,40.63
2018-09-04T02:22:57.732Z,41.00
2018-09-04T02:25:26.384Z,43.90
2018-09-04T02:27:55.097Z,43.23
2018-09-04T02:30:24.408Z,39.17
2018-09-04T02:32:52.885Z,40.43
2018-09-04T02:35:21.494Z,41.50
2018-09-04T02:37:50.135Z,38.87
2018-09-04T02:40:18.708Z,39.80
2018-09-04T02:42:47.077Z,40.53
2018-09-04T02:45:15.467Z,40.77
2018-09-04T02:47:45.394Z,40.30
2018-09-04T02:50:14.067Z,39.70
2018-09-04T02:52:42.779Z,40.03
2018-09-04T02:55:11.847Z,40.87
2018-09-04T02:57:40.690Z,43.27
2018-09-04T03:00:09.697Z,42.10
2018-09-04T03:02:38.175Z,43.30
2018-09-04T03:05:07.115Z,41.20
2018-09-04T03:07:36.393Z,40.00
2018-09-04T03:10:05.737Z,40.23
2018-09-04T03:12:34.357Z,39.90
2018-09-04T03:15:03.307Z,38.40
2018-09-04T03:17:31.719Z,41.63
2018-09-04T03:20:00.651Z,40.37
2018-09-04T03:22:29.020Z,39.27
2018-09-04T03:24:58.020Z,42.63
2018-09-04T03:27:26.664Z,40.37
2018-09-04T03:29:55.189Z,39.40
2018-09-04T03:32:25.523Z,39.80
2018-09-04T03:34:54.501Z,38.43
2018-09-04T03:37:23.388Z,38.77
2018-09-04T03:39:52.323Z,38.23
2018-09-04T03:42:21.081Z,39.07
2018-09-04T03:44:49.523Z,39.83
2018-09-04T03:47:18.186Z,37.87
2018-09-04T03:49:46.708Z,39.27
2018-09-04T03:52:16.404Z,39.13
2018-09-04T03:54:44.900Z,38.80
2018-09-04T03:57:13.696Z,39.40
2018-09-04T03:59:42.580Z,40.70
2018-09-04T04:02:11.010Z,40.67
2018-09-04T04:04:39.667Z,38.97
2018-09-04T04:07:09.174Z,39.93
2018-09-04T04:09:37.886Z,40.30
2018-09-04T04:12:06.463Z,38.43
2018-09-04T04:14:35.040Z,38.87
2018-09-04T04:17:03.671Z,40.47
2018-09-04T04:19:32.336Z,39.67
2018-09-04T04:22:00.789Z,38.50
2018-09-04T04:24:29.170Z,37.73
2018-09-04T04:26:58.259Z,38.73
2018-09-04T04:29:26.907Z,38.63
2018-09-04T04:31:56.400Z,37.67
2018-09-04T04:34:24.852Z,38.83
2018-09-04T04:36:54.134Z,37.23
2018-09-04T04:39:22.549Z,35.83
2018-09-04T04:41:51.304Z,35.90
2018-09-04T04:44:20.990Z,36.40
2018-09-04T04:46:49.647Z,35.17
2018-09-04T04:49:18.086Z,36.03
2018-09-04T04:51:47.005Z,36.40
2018-09-04T04:54:15.575Z,37.83
2018-09-04T04:56:44.138Z,34.33
2018-09-04T04:59:12.573Z,33.63
2018-09-04T05:01:42.367Z,35.07
2018-09-04T05:04:11.192Z,33.90
2018-09-04T05:06:39.930Z,34.03
2018-09-04T05:09:09.363Z,33.90
2018-09-04T05:11:38.004Z,35.70
2018-09-04T05:14:06.736Z,35.03
2018-09-04T05:16:35.957Z,35.40
2018-09-04T05:19:04.387Z,34.87
2018-09-04T05:21:33.309Z,37.37
2018-09-04T05:24:01.820Z,35.67
2018-09-04T05:26:30.418Z,37.13
2018-09-04T05:28:59.259Z,35.63
2018-09-04T05:31:28.001Z,34.90
2018-09-04T05:33:56.733Z,36.20
2018-09-04T05:36:25.815Z,35.27
2018-09-04T05:38:54.652Z,34.77
2018-09-04T05:41:23.221Z,35.67
2018-09-04T05:43:55.945Z,35.00
2018-09-04T05:46:57.134Z,34.20
2018-09-04T05:49:30.895Z,35.00
2018-09-04T05:51:59.413Z,36.20
2018-09-04T05:54:28.263Z,35.53
2018-09-04T05:56:57.172Z,34.37
2018-09-04T05:59:25.694Z,34.33
2018-09-04T06:01:55.024Z,35.93
2018-09-04T06:04:23.566Z,36.10
2018-09-04T06:06:52.039Z,34.57
2018-09-04T06:09:20.911Z,34.93
2018-09-04T06:11:49.800Z,35.93
2018-09-04T06:14:18.555Z,35.93
2018-09-04T06:16:46.974Z,34.37
2018-09-04T06:19:15.573Z,34.60
2018-09-04T06:21:44.207Z,34.93
2018-09-04T06:24:13.750Z,33.83
2018-09-04T06:26:42.183Z,35.30
2018-09-04T06:29:10.971Z,33.80
2018-09-04T06:31:40.336Z,34.03
2018-09-04T06:34:09.685Z,33.50
2018-09-04T06:36:38.460Z,30.93
2018-09-04T06:39:09.196Z,30.10
2018-09-04T06:41:38.444Z,28.17
2018-09-04T06:44:07.121Z,26.57
2018-09-04T06:46:36.041Z,26.03
2018-09-04T06:49:04.850Z,26.20
2018-09-04T06:51:34.644Z,27.23
2018-09-04T06:54:03.620Z,25.30
2018-09-04T06:56:32.204Z,25.37
2018-09-04T06:59:00.913Z,26.00
2018-09-04T07:01:30.120Z,24.20
2018-09-04T07:03:59.090Z,24.33
2018-09-04T07:06:28.682Z,24.70
2018-09-04T07:08:57.206Z,24.87
2018-09-04T07:11:27.149Z,24.73
2018-09-04T07:13:56.327Z,25.60
2018-09-04T07:16:24.734Z,24.97
2018-09-04T07:18:53.194Z,25.10
2018-09-04T07:21:21.885Z,25.67
2018-09-04T07:23:50.346Z,25.80
2018-09-04T07:26:18.884Z,25.07
2018-09-04T07:28:48.265Z,23.40
2018-09-04T07:31:17.181Z,24.03
2018-09-04T07:33:46.111Z,20.73
2018-09-04T07:36:14.581Z,20.63
2018-09-04T07:38:43.462Z,18.30
2018-09-04T07:41:12.269Z,18.73
2018-09-04T07:43:41.012Z,19.33
2018-09-04T07:46:09.825Z,18.77
2018-09-04T07:48:38.481Z,17.27
2018-09-04T07:51:07.265Z,19.33
2018-09-04T07:53:35.849Z,18.53
2018-09-04T07:56:04.304Z,17.40
2018-09-04T07:58:33.040Z,17.03
2018-09-04T08:01:01.844Z,16.57
2018-09-04T08:03:30.629Z,17.50
2018-09-04T08:06:00.317Z,16.67
2018-09-04T08:08:30.007Z,15.47
2018-09-04T08:10:58.665Z,15.27
2018-09-04T08:13:27.608Z,12.83
2018-09-04T08:15:56.228Z,12.73
2018-09-04T08:18:25.980Z,12.17
2018-09-04T08:20:55.337Z,12.47
2018-09-04T08:23:23.991Z,12.40
2018-09-04T08:25:52.708Z,11.00
2018-09-04T08:28:21.737Z,11.00
2018-09-04T08:30:50.408Z,11.20
2018-09-04T08:33:19.420Z,11.10
2018-09-04T08:35:49.593Z,11.80
2018-09-04T08:38:18.331Z,12.10
2018-09-04T08:40:47.392Z,12.30
2018-09-04T08:43:16.595Z,12.90
2018-09-04T08:45:45.378Z,14.45
2018-09-04T08:48:30.353Z,12.70
2018-09-04T08:50:59.170Z,11.90
2018-09-04T08:53:27.831Z,12.47
2018-09-04T08:55:56.683Z,11.47
2018-09-04T08:58:25.248Z,11.50
2018-09-04T09:00:54.042Z,11.97
2018-09-04T09:03:23.879Z,11.80
2018-09-04T09:05:52.988Z,10.03
2018-09-04T09:08:21.778Z,9.27
2018-09-04T09:10:50.622Z,8.43
2018-09-04T09:13:19.460Z,9.03
2018-09-04T09:15:48.796Z,9.80
2018-09-04T09:18:17.759Z,9.57
2018-09-04T09:20:48.852Z,9.30
2018-09-04T09:23:17.373Z,8.87
2018-09-04T09:25:47.116Z,8.70
2018-09-04T09:28:17.001Z,8.40
2018-09-04T09:30:45.653Z,9.20
2018-09-04T09:33:14.561Z,8.43
2018-09-04T09:35:43.481Z,8.73
2018-09-04T09:38:12.130Z,8.77
2018-09-04T09:40:40.602Z,9.47
2018-09-04T09:43:09.403Z,9.30
2018-09-04T09:45:38.374Z,10.90
2018-09-04T09:48:07.426Z,11.70
2018-09-04T09:50:35.869Z,12.77
2018-09-04T09:53:07.010Z,13.30
2018-09-04T09:55:35.663Z,13.83
2018-09-04T09:58:04.608Z,14.50
2018-09-04T10:00:38.555Z,16.03
2018-09-04T10:03:13.555Z,16.33
2018-09-04T10:05:42.182Z,15.80
2018-09-04T10:08:10.739Z,17.50
2018-09-04T10:10:39.981Z,19.20
2018-09-04T10:13:08.443Z,18.73
2018-09-04T10:15:41.525Z,18.13
2018-09-04T10:18:10.592Z,20.40
2018-09-04T10:20:39.055Z,21.43
2018-09-04T10:23:07.580Z,22.13
2018-09-04T10:25:36.052Z,22.60
2018-09-04T10:28:08.676Z,22.87
2018-09-04T10:30:38.903Z,22.07
2018-09-04T10:33:08.898Z,22.77
2018-09-04T10:35:44.783Z,22.57
2018-09-04T10:41:02.494Z,24.07
2018-09-04T10:43:31.928Z,23.43
2018-09-04T10:46:03.196Z,24.13
2018-09-04T10:48:32.120Z,25.27
2018-09-04T10:51:02.151Z,26.40
2018-09-04T10:53:30.716Z,26.07
2018-09-04T10:55:59.331Z,27.50
2018-09-04T10:58:28.433Z,27.00
2018-09-04T11:00:57.235Z,28.87
2018-09-04T11:03:28.019Z,28.67
2018-09-04T11:05:56.451Z,28.70
2018-09-04T11:08:26.413Z,29.23
2018-09-04T11:10:55.125Z,29.07
2018-09-04T11:13:23.760Z,28.93
2018-09-04T11:15:54.424Z,30.27
2018-09-04T11:18:23.850Z,30.60
2018-09-04T11:20:52.927Z,29.43
2018-09-04T11:23:22.176Z,31.37
2018-09-04T11:25:50.795Z,29.90
2018-09-04T11:28:20.367Z,28.50
2018-09-04T11:30:49.275Z,29.63
2018-09-04T11:33:18.242Z,30.33
2018-09-04T11:35:47.596Z,30.80
2018-09-04T11:38:16.533Z,30.50
2018-09-04T11:40:45.273Z,31.37
2018-09-04T11:43:16.629Z,30.00
2018-09-04T11:45:45.614Z,31.07
2018-09-04T11:48:18.435Z,31.67
2018-09-04T11:50:47.776Z,30.03
2018-09-04T11:53:17.353Z,29.93
2018-09-04T11:55:49.296Z,28.07
2018-09-04T11:58:18.452Z,27.13
2018-09-04T12:00:48.729Z,25.87
2018-09-04T12:03:19.242Z,26.77
2018-09-04T12:05:49.922Z,26.17
2018-09-04T12:08:19.984Z,24.10
2018-09-04T12:10:49.473Z,24.83
2018-09-04T12:13:25.278Z,22.43
2018-09-04T12:15:54.400Z,20.83
2018-09-04T12:18:24.899Z,20.93
2018-09-04T12:21:00.110Z,19.87
2018-09-04T12:23:30.727Z,19.03
2018-09-04T12:26:01.344Z,19.27
2018-09-04T12:28:30.504Z,17.50
2018-09-04T12:30:59.995Z,18.33
2018-09-04T12:33:29.450Z,19.30
2018-09-04T12:36:00.830Z,20.13
2018-09-04T12:38:32.809Z,19.90
2018-09-04T12:41:10.977Z,21.57
2018-09-04T12:43:40.479Z,21.63
2018-09-04T12:46:10.125Z,21.87
2018-09-04T12:48:38.748Z,22.60
2018-09-04T12:51:08.269Z,22.10
2018-09-04T12:53:39.436Z,24.87
2018-09-04T12:56:08.577Z,21.27
2018-09-04T12:58:37.824Z,22.63
2018-09-04T13:01:09.755Z,20.90
2018-09-04T13:03:41.228Z,19.90
2018-09-04T13:06:11.820Z,20.27
2018-09-04T13:08:40.931Z,20.40
2018-09-04T13:11:10.861Z,20.63
2018-09-04T13:13:39.812Z,22.50
2018-09-04T13:16:08.861Z,22.50
2018-09-04T13:18:38.961Z,22.23
2018-09-04T13:21:07.772Z,22.83
2018-09-04T13:23:37.508Z,22.40
2018-09-04T13:26:06.906Z,22.07
2018-09-04T13:28:37.127Z,22.63
2018-09-04T13:31:06.776Z,20.63
2018-09-04T13:33:36.796Z,19.63
2018-09-04T13:36:06.657Z,20.77
2018-09-04T13:38:36.336Z,19.70
2018-09-04T13:41:08.664Z,19.20
2018-09-04T13:43:39.352Z,18.70
2018-09-04T13:46:09.916Z,20.00
2018-09-04T13:48:39.471Z,19.33
2018-09-04T13:51:08.998Z,19.30
2018-09-04T13:53:37.776Z,19.67
2018-09-04T13:56:08.150Z,24.93
2018-09-04T13:58:37.101Z,27.07
2018-09-04T14:01:06.713Z,29.20
2018-09-04T14:03:35.793Z,32.07
2018-09-04T14:06:07.248Z,32.37
2018-09-04T14:08:36.648Z,37.43
2018-09-04T14:11:06.114Z,37.20
2018-09-04T14:13:35.148Z,39.73
2018-09-04T14:16:06.134Z,40.87
2018-09-04T14:18:36.655Z,43.20
2018-09-04T14:21:06.932Z,42.60
2018-09-04T14:23:35.951Z,44.97
2018-09-04T14:26:04.924Z,45.47
2018-09-04T14:28:41.580Z,47.47
2018-09-04T14:31:04.256Z,47.13
2018-09-04T14:33:34.567Z,45.53
2018-09-04T14:36:06.539Z,47.50
2018-09-04T14:38:37.204Z,48.57
2018-09-04T14:41:06.840Z,48.50
2018-09-04T14:43:37.171Z,47.77
2018-09-04T14:46:05.916Z,47.47
2018-09-04T14:48:36.705Z,45.20
2018-09-04T14:51:05.853Z,43.93
2018-09-04T14:53:35.565Z,43.90
2018-09-04T14:56:04.806Z,41.57
2018-09-04T14:58:34.032Z,42.03
2018-09-04T15:01:03.210Z,39.57
2018-09-04T15:03:32.347Z,39.37
2018-09-04T15:06:02.460Z,37.73
2018-09-04T15:08:32.935Z,38.77
2018-09-04T15:11:03.539Z,36.23
2018-09-04T15:13:32.540Z,37.10
2018-09-04T15:16:01.318Z,35.83
2018-09-04T15:18:30.296Z,35.00
2018-09-04T15:20:59.331Z,35.60
2018-09-04T15:23:32.363Z,35.07
2018-09-04T15:26:02.660Z,33.87
2018-09-04T15:28:32.386Z,34.63
2018-09-04T15:31:01.730Z,34.27
2018-09-04T15:33:32.188Z,33.63
2018-09-04T15:36:01.311Z,33.33
2018-09-04T15:38:29.980Z,33.10
2018-09-04T15:40:58.763Z,34.00
2018-09-04T15:43:27.546Z,34.80
2018-09-04T15:45:57.056Z,34.37
2018-09-04T15:48:27.549Z,33.20
2018-09-04T15:50:56.530Z,34.97
2018-09-04T15:53:25.018Z,36.43
2018-09-04T15:55:53.820Z,34.77
2018-09-04T15:58:22.579Z,34.90
2018-09-04T16:00:51.609Z,34.67
2018-09-04T16:03:20.513Z,33.87
2018-09-04T16:05:51.330Z,33.83
2018-09-04T16:08:20.277Z,34.57
2018-09-04T16:10:49.402Z,35.13
2018-09-04T16:13:18.583Z,34.70
2018-09-04T16:15:47.528Z,35.07
2018-09-04T16:18:18.085Z,36.77
2018-09-04T16:20:46.563Z,36.20
2018-09-04T16:23:15.176Z,36.43
2018-09-04T16:25:45.698Z,37.57
2018-09-04T16:28:15.573Z,37.90
2018-09-04T16:30:44.124Z,37.23
2018-09-04T16:33:13.257Z,35.67
2018-09-04T16:35:42.140Z,34.43
2018-09-04T16:38:12.768Z,37.90
2018-09-04T16:40:41.905Z,36.43
2018-09-04T16:43:10.324Z,39.47
2018-09-04T16:45:40.377Z,38.97
2018-09-04T16:48:09.533Z,39.20
2018-09-04T16:50:38.268Z,37.23
2018-09-04T16:53:07.133Z,36.27
2018-09-04T16:55:35.730Z,35.13
2018-09-04T16:58:05.040Z,36.47
2018-09-04T17:00:34.318Z,36.70
2018-09-04T17:03:04.873Z,35.87
2018-09-04T17:05:33.894Z,35.67
2018-09-04T17:08:02.877Z,36.07
2018-09-04T17:10:31.845Z,38.40
2018-09-04T17:13:00.597Z,37.57
2018-09-04T17:15:29.359Z,36.97
2018-09-04T17:17:59.222Z,36.97
2018-09-04T17:20:29.287Z,37.90
2018-09-04T17:22:58.919Z,39.07
2018-09-04T17:25:28.122Z,38.47
2018-09-04T17:27:56.980Z,38.97
2018-09-04T17:30:25.401Z,38.97
2018-09-04T17:32:54.615Z,39.97
2018-09-04T17:35:24.277Z,39.67
2018-09-04T17:37:54.721Z,39.33
2018-09-04T17:40:24.756Z,39.70
2018-09-04T17:42:53.694Z,39.93
2018-09-04T17:45:22.340Z,38.60
2018-09-04T17:47:50.837Z,40.47
2018-09-04T17:50:20.996Z,39.27
2018-09-04T17:52:49.459Z,40.40
2018-09-04T17:55:17.899Z,40.00
2018-09-04T17:57:47.396Z,39.07
2018-09-04T18:00:16.099Z,41.23
2018-09-04T18:02:46.359Z,40.40
2018-09-04T18:05:15.208Z,40.83
2018-09-04T18:07:43.722Z,41.93
2018-09-04T18:10:12.893Z,39.63
2018-09-04T18:12:41.629Z,39.57
2018-09-04T18:15:11.148Z,40.80
2018-09-04T18:17:39.991Z,41.67
2018-09-04T18:20:11.672Z,39.70
2018-09-04T18:22:40.404Z,40.33
2018-09-04T18:25:09.148Z,41.23
2018-09-04T18:27:38.456Z,41.63
2018-09-04T18:30:07.378Z,44.50
2018-09-04T18:32:36.169Z,44.67
2018-09-04T18:35:04.853Z,42.77
2018-09-04T18:37:34.275Z,40.93
2018-09-04T18:40:03.162Z,43.07
2018-09-04T18:42:32.284Z,40.30
2018-09-04T18:45:05.378Z,43.20
2018-09-04T18:47:36.478Z,47.37
2018-09-04T18:50:06.574Z,45.23
2018-09-04T18:52:35.558Z,46.33
2018-09-04T18:55:04.293Z,46.53
2018-09-04T18:57:32.926Z,45.77
2018-09-04T19:00:03.466Z,43.97
2018-09-04T19:02:31.850Z,46.00
2018-09-04T19:05:00.542Z,47.27
2018-09-04T19:07:28.998Z,46.17
2018-09-04T19:09:57.800Z,48.00
2018-09-04T19:12:27.775Z,48.27
2018-09-04T19:14:56.568Z,47.37
2018-09-04T19:17:25.646Z,47.13
2018-09-04T19:19:54.556Z,44.40
2018-09-04T19:22:24.859Z,46.93
2018-09-04T19:24:53.906Z,45.33
2018-09-04T19:27:23.228Z,44.80
2018-09-04T19:29:52.284Z,44.93
2018-09-04T19:32:20.989Z,41.83
2018-09-04T19:34:49.871Z,44.20
2018-09-04T19:37:18.597Z,41.37
2018-09-04T19:39:49.766Z,42.63
2018-09-04T19:42:18.766Z,43.33
2018-09-04T19:44:47.476Z,44.40
2018-09-04T19:47:17.640Z,46.50
2018-09-04T19:49:46.660Z,45.60
2018-09-04T19:52:15.505Z,45.13
2018-09-04T19:54:45.340Z,48.27
2018-09-04T19:57:14.250Z,46.30
2018-09-04T19:59:43.373Z,44.73
2018-09-04T20:02:12.296Z,45.33
2018-09-04T20:04:41.862Z,45.63
2018-09-04T20:07:10.338Z,46.40
2018-09-04T20:09:40.180Z,46.20
2018-09-04T20:12:11.528Z,47.53
2018-09-04T20:14:40.115Z,46.43
2018-09-04T20:17:09.697Z,45.07
2018-09-04T20:19:38.553Z,44.60
2018-09-04T20:22:09.206Z,44.73
2018-09-04T20:24:38.541Z,42.63
2018-09-04T20:27:07.260Z,43.00
2018-09-04T20:29:35.729Z,41.80
2018-09-04T20:32:05.509Z,42.10
2018-09-04T20:34:34.380Z,41.97
2018-09-04T20:37:02.844Z,39.90
2018-09-04T20:39:31.603Z,42.03
2018-09-04T20:42:00.229Z,40.57
2018-09-04T20:44:29.173Z,41.57
2018-09-04T20:46:58.482Z,39.10
2018-09-04T20:49:27.882Z,37.77
2018-09-04T20:51:56.436Z,36.57
2018-09-04T20:54:29.054Z,37.10
2018-09-04T20:57:32.155Z,34.47
2018-09-04T21:00:13.696Z,34.53
2018-09-04T21:02:54.358Z,35.73
2018-09-04T21:05:34.942Z,33.87
2018-09-04T21:09:14.782Z,32.10
2018-09-04T21:11:44.981Z,31.63
2018-09-04T21:14:15.233Z,30.20
2018-09-04T21:16:43.723Z,32.83
2018-09-04T21:19:12.461Z,32.00
2018-09-04T21:21:42.321Z,32.23
2018-09-04T21:24:10.773Z,31.10
2018-09-04T21:26:39.893Z,30.77
2018-09-04T21:29:09.371Z,28.30
2018-09-04T21:31:38.052Z,30.37
2018-09-04T21:34:07.737Z,29.37
2018-09-04T21:36:36.535Z,30.40
2018-09-04T21:39:07.058Z,29.13
2018-09-04T21:41:36.046Z,29.90
2018-09-04T21:44:04.904Z,29.03
2018-09-04T21:46:34.630Z,28.93
2018-09-04T21:49:03.491Z,27.63
2018-09-04T21:51:32.425Z,29.63
